Time;durP1;ratioP1;P1;durP2;ratioP2;P2;SDS_P1;SDS_P2;PMS_P1;PMS_P2;Temp;Humidity;BMP_temperature;BMP_pressure;BME280_temperature;BME280_humidity;BME280_pressure;Samples;Min_cycle;Max_cycle;Signal;HPM_P1;HPM_P2
2023/05/04 00:00:27;;;;;;;0.60;0.60;;;18.60;45.60;;;;;;6198880;23;20156;-81
2023/05/04 00:02:53;;;;;;;2.33;0.85;;;18.60;45.60;;;;;;6122243;23;20136;-81
2023/05/04 00:05:19;;;;;;;1.58;0.85;;;18.60;45.70;;;;;;6223892;23;20567;-81
2023/05/04 00:07:45;;;;;;;1.05;0.93;;;18.60;45.60;;;;;;6223852;23;20164;-81
2023/05/04 00:10:11;;;;;;;0.98;0.85;;;18.60;45.60;;;;;;6224095;23;20136;-81
2023/05/04 00:12:38;;;;;;;1.00;0.90;;;18.60;45.60;;;;;;6122219;23;20145;-81
2023/05/04 00:15:04;;;;;;;1.40;1.05;;;18.50;45.60;;;;;;6198703;23;20176;-81
2023/05/04 00:17:31;;;;;;;0.80;0.80;;;18.60;45.70;;;;;;6122137;23;20236;-83
2023/05/04 00:19:57;;;;;;;1.40;1.00;;;18.60;45.70;;;;;;6224373;23;20172;-81
2023/05/04 00:22:22;;;;;;;1.10;0.80;;;18.60;45.70;;;;;;6122380;23;20216;-81
2023/05/04 00:24:48;;;;;;;0.93;0.90;;;18.60;45.70;;;;;;6122231;23;20165;-81
2023/05/04 00:27:14;;;;;;;1.00;0.90;;;18.50;45.60;;;;;;6121995;23;20559;-81
2023/05/04 00:29:40;;;;;;;1.20;0.90;;;18.50;45.70;;;;;;6122049;23;20564;-81
2023/05/04 00:32:06;;;;;;;1.45;1.00;;;18.50;45.60;;;;;;6223749;23;20140;-81
2023/05/04 00:34:33;;;;;;;0.85;0.80;;;18.60;45.70;;;;;;6223597;23;20191;-81
2023/05/04 00:36:59;;;;;;;0.88;0.88;;;18.60;45.70;;;;;;6223966;23;20155;-81
2023/05/04 00:39:25;;;;;;;1.10;1.00;;;18.50;45.80;;;;;;6223768;23;20144;-81
2023/05/04 00:41:51;;;;;;;0.93;0.80;;;18.50;45.80;;;;;;6122028;23;20560;-81
2023/05/04 00:44:19;;;;;;;2.67;1.08;;;18.50;45.80;;;;;;6122193;23;20147;-81
2023/05/04 00:46:45;;;;;;;0.70;0.70;;;18.50;45.80;;;;;;6198962;23;20207;-81
2023/05/04 00:49:11;;;;;;;1.23;0.98;;;18.50;45.80;;;;;;6122300;23;20133;-81
2023/05/04 00:51:37;;;;;;;1.08;0.95;;;18.50;45.80;;;;;;6223713;23;20141;-81
2023/05/04 00:54:03;;;;;;;1.10;1.00;;;18.50;45.80;;;;;;6198430;23;20227;-81
2023/05/04 00:56:29;;;;;;;1.02;0.90;;;18.50;45.80;;;;;;6224642;23;20234;-81
2023/05/04 00:58:56;;;;;;;1.00;0.90;;;18.50;46.00;;;;;;6225514;23;20168;-81
2023/05/04 01:01:22;;;;;;;0.93;0.90;;;18.50;45.90;;;;;;6200660;23;20580;-81
2023/05/04 01:03:49;;;;;;;0.95;0.80;;;18.50;45.90;;;;;;6225547;23;20223;-81
2023/05/04 01:06:28;;;;;;;1.10;1.00;;;18.50;46.00;;;;;;6224989;23;20160;-81
2023/05/04 01:09:01;;;;;;;2.15;1.08;;;18.50;45.90;;;;;;6225737;23;20147;-81
2023/05/04 01:11:42;;;;;;;1.40;0.82;;;18.50;45.90;;;;;;6226200;23;20147;-80
2023/05/04 01:14:08;;;;;;;1.33;0.93;;;18.50;46.00;;;;;;6123426;23;20617;-81
2023/05/04 01:16:33;;;;;;;1.08;0.98;;;18.50;45.90;;;;;;6200033;23;20149;-82
2023/05/04 01:19:00;;;;;;;1.10;1.00;;;18.50;46.10;;;;;;6123251;23;20461;-81
2023/05/04 01:21:29;;;;;;;1.42;1.02;;;18.50;46.00;;;;;;6225869;23;20152;-82
2023/05/04 01:23:55;;;;;;;1.10;1.00;;;18.40;46.00;;;;;;6201059;23;20151;-82
2023/05/04 01:26:28;;;;;;;1.17;0.80;;;18.50;46.10;;;;;;6200004;23;20164;-82
2023/05/04 01:29:15;;;;;;;1.58;0.90;;;18.40;46.00;;;;;;6200117;23;20148;-82
2023/05/04 01:31:41;;;;;;;1.00;0.90;;;18.50;46.10;;;;;;6200006;23;20208;-81
2023/05/04 01:34:06;;;;;;;1.13;0.90;;;18.50;46.00;;;;;;6122943;22;20195;-82
2023/05/04 01:36:32;;;;;;;0.93;0.82;;;18.50;46.00;;;;;;6225109;23;20669;-82
2023/05/04 01:38:59;;;;;;;1.10;1.00;;;18.40;45.90;;;;;;6122892;23;20141;-81
2023/05/04 01:41:25;;;;;;;0.80;0.80;;;18.50;46.10;;;;;;6123643;23;20186;-82
2023/05/04 01:43:53;;;;;;;1.30;1.08;;;18.50;46.00;;;;;;6200153;23;20179;-82
2023/05/04 01:46:19;;;;;;;1.00;0.90;;;18.50;46.20;;;;;;6122769;23;20170;-82
2023/05/04 01:48:45;;;;;;;1.00;0.90;;;18.50;46.30;;;;;;6122873;23;20573;-81
2023/05/04 01:51:11;;;;;;;1.00;0.90;;;18.40;46.10;;;;;;6122713;23;20140;-82
2023/05/04 01:53:37;;;;;;;1.10;1.00;;;18.50;46.30;;;;;;6225214;23;20133;-82
2023/05/04 01:56:03;;;;;;;0.90;0.90;;;18.40;46.30;;;;;;6122888;23;20622;-82
2023/05/04 01:58:29;;;;;;;1.10;1.00;;;18.40;46.30;;;;;;6225285;23;20216;-82
2023/05/04 02:00:55;;;;;;;0.82;0.82;;;18.40;46.30;;;;;;6200546;23;20211;-82
2023/05/04 02:03:21;;;;;;;1.30;1.05;;;18.40;46.30;;;;;;6224827;23;20179;-82
2023/05/04 02:05:46;;;;;;;1.10;0.98;;;18.40;46.20;;;;;;6225044;23;20584;-82
2023/05/04 02:08:12;;;;;;;1.17;1.00;;;18.40;46.20;;;;;;6123087;23;20160;-82
2023/05/04 02:10:39;;;;;;;0.90;0.80;;;18.40;46.20;;;;;;6123275;23;20136;-81
2023/05/04 02:13:05;;;;;;;0.90;0.90;;;18.30;46.20;;;;;;6122697;23;20132;-83
2023/05/04 02:15:31;;;;;;;0.90;0.90;;;18.40;46.40;;;;;;6123126;23;20143;-81
2023/05/04 02:17:57;;;;;;;1.30;0.90;;;18.40;46.30;;;;;;6199781;23;20156;-82
2023/05/04 02:20:23;;;;;;;0.93;0.80;;;18.40;46.40;;;;;;6225057;23;20445;-82
2023/05/04 02:22:49;;;;;;;1.40;0.98;;;18.30;46.40;;;;;;6122673;23;20190;-82
2023/05/04 02:25:15;;;;;;;1.02;0.93;;;18.40;46.40;;;;;;6200236;23;20239;-82
2023/05/04 02:27:41;;;;;;;1.05;0.95;;;18.40;46.50;;;;;;6122803;23;20133;-82
2023/05/04 02:30:08;;;;;;;1.27;1.00;;;18.40;46.40;;;;;;6225775;23;20545;-82
2023/05/04 02:32:34;;;;;;;1.20;1.00;;;18.30;46.40;;;;;;6122599;23;20212;-82
2023/05/04 02:34:59;;;;;;;1.10;0.90;;;18.30;46.40;;;;;;6224545;23;20230;-82
2023/05/04 02:37:25;;;;;;;1.50;0.90;;;18.30;47.10;;;;;;6174767;23;20532;-82
2023/05/04 02:39:51;;;;;;;1.98;1.02;;;18.40;46.40;;;;;;6199651;23;20217;-81
2023/05/04 02:42:17;;;;;;;1.17;0.80;;;18.30;46.40;;;;;;6224816;23;20254;-82
2023/05/04 02:44:43;;;;;;;1.23;0.82;;;18.40;46.40;;;;;;6224507;23;20155;-82
2023/05/04 02:47:09;;;;;;;1.20;1.10;;;18.40;46.50;;;;;;6224381;23;20168;-82
2023/05/04 02:49:35;;;;;;;1.20;0.98;;;18.40;46.50;;;;;;6122624;23;20167;-82
2023/05/04 02:52:01;;;;;;;1.95;0.93;;;18.40;46.40;;;;;;6225116;23;20137;-83
2023/05/04 02:54:27;;;;;;;1.38;0.90;;;18.40;46.50;;;;;;6224671;23;20172;-82
2023/05/04 02:56:53;;;;;;;0.82;0.82;;;18.40;46.50;;;;;;6224682;23;20557;-82
2023/05/04 02:59:19;;;;;;;1.20;1.00;;;18.30;46.50;;;;;;6122647;23;20137;-82
2023/05/04 03:01:45;;;;;;;0.93;0.85;;;18.30;46.40;;;;;;6122432;23;20560;-82
2023/05/04 03:04:10;;;;;;;1.58;0.98;;;18.40;46.60;;;;;;6224359;23;20148;-82
2023/05/04 03:06:36;;;;;;;1.10;1.00;;;18.30;46.60;;;;;;6225418;23;20564;-82
2023/05/04 03:09:03;;;;;;;0.88;0.80;;;18.30;46.60;;;;;;6224688;23;20460;-82
2023/05/04 03:11:29;;;;;;;1.17;0.90;;;18.30;46.60;;;;;;6122753;23;20132;-81
2023/05/04 03:13:55;;;;;;;0.95;0.88;;;18.30;46.60;;;;;;6122496;23;20140;-82
2023/05/04 03:16:21;;;;;;;1.08;0.98;;;18.30;46.60;;;;;;6198962;23;20152;-82
2023/05/04 03:18:47;;;;;;;0.88;0.88;;;18.30;46.60;;;;;;6198569;23;20512;-82
2023/05/04 03:21:13;;;;;;;1.30;1.10;;;18.30;46.60;;;;;;6224392;23;20151;-82
2023/05/04 03:23:39;;;;;;;0.95;0.90;;;18.30;46.70;;;;;;6122456;23;20140;-82
2023/05/04 03:26:05;;;;;;;1.30;0.88;;;18.30;46.50;;;;;;6122764;23;20164;-81
2023/05/04 03:28:31;;;;;;;0.98;0.82;;;18.30;46.60;;;;;;6122363;23;20143;-81
2023/05/04 03:30:56;;;;;;;0.90;0.90;;;18.40;46.70;;;;;;6199685;23;20231;-81
2023/05/04 03:33:22;;;;;;;1.52;1.10;;;18.30;46.70;;;;;;6224118;23;20137;-81
2023/05/04 03:35:48;;;;;;;1.73;0.90;;;18.30;46.50;;;;;;6224043;23;20573;-82
2023/05/04 03:38:15;;;;;;;0.82;0.82;;;18.30;46.60;;;;;;6122457;23;20132;-81
2023/05/04 03:40:41;;;;;;;1.00;0.90;;;18.30;46.70;;;;;;6122651;23;20136;-81
2023/05/04 03:43:07;;;;;;;1.08;0.98;;;18.30;46.70;;;;;;6122231;23;20215;-81
2023/05/04 03:45:33;;;;;;;1.38;1.00;;;18.30;46.70;;;;;;6122630;23;20607;-81
2023/05/04 03:47:59;;;;;;;0.88;0.88;;;18.30;46.70;;;;;;6223907;23;20136;-81
2023/05/04 03:50:25;;;;;;;1.10;1.00;;;18.30;46.70;;;;;;6198607;23;20602;-81
2023/05/04 03:52:51;;;;;;;1.10;0.80;;;18.30;46.70;;;;;;6199554;23;20156;-81
2023/05/04 03:55:17;;;;;;;1.10;1.00;;;18.30;46.70;;;;;;6199030;23;20179;-81
2023/05/04 03:57:43;;;;;;;0.90;0.90;;;18.30;46.70;;;;;;6224880;23;20153;-81
2023/05/04 04:00:09;;;;;;;1.20;1.00;;;18.30;46.60;;;;;;6199336;23;20148;-81
2023/05/04 04:02:35;;;;;;;1.20;0.80;;;18.30;46.70;;;;;;6122388;23;20136;-82
2023/05/04 04:05:01;;;;;;;1.75;0.90;;;18.30;46.60;;;;;;6223834;23;20202;-81
2023/05/04 04:07:27;;;;;;;1.05;0.95;;;18.30;46.60;;;;;;6199036;23;20225;-81
2023/05/04 04:09:53;;;;;;;1.45;0.95;;;18.30;46.70;;;;;;6224477;23;20137;-81
2023/05/04 04:12:19;;;;;;;1.20;1.00;;;18.30;46.50;;;;;;6198620;23;20222;-81
2023/05/04 04:14:47;;;;;;;0.70;0.70;;;18.40;46.60;;;;;;6223509;23;20129;-82
2023/05/04 04:17:13;;;;;;;1.25;1.00;;;18.40;46.50;;;;;;6199065;23;20576;-81
2023/05/04 04:19:39;;;;;;;0.82;0.82;;;18.40;46.50;;;;;;6198685;23;20148;-81
2023/05/04 04:22:05;;;;;;;1.05;0.90;;;18.40;46.60;;;;;;6198539;23;20187;-82
2023/05/04 04:24:32;;;;;;;1.50;1.10;;;18.40;46.60;;;;;;6122602;23;20499;-81
2023/05/04 04:26:58;;;;;;;0.93;0.90;;;18.40;46.50;;;;;;6198997;23;20187;-81
2023/05/04 04:29:24;;;;;;;0.85;0.85;;;18.40;46.60;;;;;;6198889;23;20231;-81
2023/05/04 04:31:50;;;;;;;1.38;0.82;;;18.40;46.70;;;;;;6223535;23;20148;-82
2023/05/04 04:34:16;;;;;;;1.00;0.80;;;18.40;46.60;;;;;;6223671;23;20211;-81
2023/05/04 04:36:42;;;;;;;1.05;0.90;;;18.40;46.50;;;;;;6122540;23;20506;-81
2023/05/04 04:39:09;;;;;;;1.13;1.02;;;18.40;46.40;;;;;;6121963;23;20137;-81
2023/05/04 04:41:35;;;;;;;1.00;0.88;;;18.40;46.40;;;;;;6121965;23;20140;-81
2023/05/04 04:44:01;;;;;;;1.08;1.00;;;18.40;46.40;;;;;;6224171;23;20204;-80
2023/05/04 04:46:28;;;;;;;1.02;1.00;;;18.50;46.40;;;;;;6198086;23;20207;-80
2023/05/04 04:48:54;;;;;;;1.35;1.00;;;18.50;47.10;;;;;;6198733;23;20552;-80
2023/05/04 04:51:20;;;;;;;1.20;0.77;;;18.50;46.40;;;;;;6198484;23;20172;-80
2023/05/04 04:53:46;;;;;;;1.42;0.80;;;18.50;46.40;;;;;;6224121;23;20146;-80
2023/05/04 04:56:12;;;;;;;1.52;1.10;;;18.40;46.40;;;;;;6223636;23;20604;-80
2023/05/04 04:58:38;;;;;;;1.25;0.90;;;18.50;46.40;;;;;;6223432;23;20156;-81
2023/05/04 05:01:04;;;;;;;1.80;0.95;;;18.50;46.40;;;;;;6198978;23;20148;-80
2023/05/04 05:03:30;;;;;;;1.00;0.90;;;18.50;46.30;;;;;;6198239;23;20151;-80
2023/05/04 05:05:56;;;;;;;1.00;0.90;;;18.40;46.40;;;;;;6121537;23;20175;-80
2023/05/04 05:08:22;;;;;;;0.95;0.90;;;18.50;46.30;;;;;;6223685;23;20133;-81
2023/05/04 05:10:48;;;;;;;1.15;0.80;;;18.50;46.40;;;;;;6223461;23;20172;-80
2023/05/04 05:13:14;;;;;;;1.02;0.90;;;18.50;46.30;;;;;;6121660;23;20140;-80
2023/05/04 05:15:40;;;;;;;0.93;0.90;;;18.50;46.30;;;;;;6223661;23;20144;-80
2023/05/04 05:18:06;;;;;;;1.08;0.90;;;18.50;46.20;;;;;;6121555;23;20203;-80
2023/05/04 05:20:32;;;;;;;0.90;0.90;;;18.50;46.20;;;;;;6121666;23;20144;-82
2023/05/04 05:22:57;;;;;;;0.90;0.80;;;18.50;46.20;;;;;;6198622;23;20223;-81
2023/05/04 05:25:23;;;;;;;1.35;0.90;;;18.50;46.20;;;;;;6121545;23;20599;-81
2023/05/04 05:27:49;;;;;;;1.42;1.00;;;18.60;46.10;;;;;;6121608;23;20136;-81
2023/05/04 05:30:14;;;;;;;0.88;0.82;;;18.60;46.00;;;;;;6223275;23;20175;-80
2023/05/04 05:32:40;;;;;;;0.98;0.88;;;18.60;46.10;;;;;;6222997;23;20568;-80
2023/05/04 05:35:08;;;;;;;1.00;0.90;;;18.60;46.00;;;;;;6121470;22;20678;-80
2023/05/04 05:37:34;;;;;;;1.30;1.17;;;18.60;46.10;;;;;;6198139;23;20166;-80
2023/05/04 05:39:59;;;;;;;0.90;0.90;;;18.60;45.80;;;;;;6198120;23;20168;-80
2023/05/04 05:42:25;;;;;;;1.10;1.00;;;18.60;45.90;;;;;;6223724;23;20170;-80
2023/05/04 05:44:51;;;;;;;0.73;0.73;;;18.60;46.00;;;;;;6122816;23;20227;-80
2023/05/04 05:47:16;;;;;;;0.85;0.85;;;18.60;46.00;;;;;;6225319;23;20195;-80
2023/05/04 05:49:43;;;;;;;1.00;0.90;;;18.60;45.90;;;;;;6122737;23;20136;-81
2023/05/04 05:52:09;;;;;;;1.58;1.00;;;18.60;46.10;;;;;;6122768;23;20136;-81
2023/05/04 05:54:35;;;;;;;1.05;0.95;;;18.70;46.20;;;;;;6225598;23;20167;-82
2023/05/04 05:57:01;;;;;;;1.02;0.93;;;18.70;46.10;;;;;;6199856;23;20148;-82
2023/05/04 05:59:27;;;;;;;1.20;1.10;;;18.80;45.80;;;;;;6227257;23;20215;-81
2023/05/04 06:01:55;;;;;;;1.10;1.00;;;18.70;45.80;;;;;;6198372;23;20193;-82
2023/05/04 06:04:24;;;;;;;0.80;0.80;;;18.70;45.90;;;;;;6172335;23;20160;-81
2023/05/04 06:06:53;;;;;;;0.90;0.90;;;18.80;45.70;;;;;;6123004;23;20184;-82
2023/05/04 06:09:21;;;;;;;1.10;0.90;;;18.70;45.60;;;;;;6172365;23;20256;-82
2023/05/04 06:11:50;;;;;;;1.10;1.00;;;18.80;45.70;;;;;;6148298;23;20243;-81
2023/05/04 06:14:18;;;;;;;1.08;0.90;;;18.70;45.60;;;;;;6172996;23;20453;-82
2023/05/04 06:16:47;;;;;;;0.90;0.90;;;18.80;45.60;;;;;;6174261;23;20274;-82
2023/05/04 06:19:15;;;;;;;0.82;0.77;;;18.90;45.60;;;;;;6174086;23;20160;-81
2023/05/04 06:21:43;;;;;;;2.38;1.00;;;18.70;45.50;;;;;;6173750;23;20156;-82
2023/05/04 06:24:11;;;;;;;12.50;1.92;;;18.80;45.50;;;;;;6173791;23;20219;-82
2023/05/04 06:26:40;;;;;;;14.30;1.88;;;18.80;45.60;;;;;;6149443;23;20507;-82
2023/05/04 06:29:05;;;;;;;14.20;1.60;;;18.80;45.70;;;;;;6156419;23;20156;-82
2023/05/04 06:31:33;;;;;;;9.73;1.52;;;18.80;45.70;;;;;;6232080;23;20147;-82
2023/05/04 06:33:59;;;;;;;7.93;1.65;;;18.90;45.50;;;;;;6155892;22;20192;-82
2023/05/04 06:36:25;;;;;;;6.45;1.35;;;18.90;45.50;;;;;;6230406;23;20143;-84
2023/05/04 06:38:51;;;;;;;13.55;1.63;;;18.90;45.40;;;;;;6229180;23;20553;-83
2023/05/04 06:41:18;;;;;;;6.10;1.40;;;18.70;45.80;;;;;;6228489;23;20201;-84
2023/05/04 06:43:45;;;;;;;4.10;1.30;;;18.70;45.80;;;;;;6130926;23;20128;-83
2023/05/04 06:46:15;;;;;;;6.18;1.30;;;18.60;45.90;;;;;;6208620;23;20263;-82
2023/05/04 06:48:41;;;;;;;8.68;1.20;;;18.70;45.90;;;;;;6133061;23;20152;-81
2023/05/04 06:51:09;;;;;;;4.30;1.20;;;18.70;45.70;;;;;;6179817;23;20194;-81
2023/05/04 06:53:36;;;;;;;3.58;1.17;;;18.70;45.80;;;;;;6156110;23;20152;-81
2023/05/04 06:56:02;;;;;;;1.58;0.93;;;18.60;45.90;;;;;;6233099;23;20215;-82
2023/05/04 06:58:30;;;;;;;1.10;0.93;;;18.60;45.80;;;;;;6182326;23;20177;-81
2023/05/04 07:00:56;;;;;;;2.25;0.80;;;18.60;45.70;;;;;;6103274;23;20149;-81
2023/05/04 07:03:22;;;;;;;1.70;0.90;;;18.60;45.70;;;;;;6229550;23;20327;-81
2023/05/04 07:05:49;;;;;;;3.03;1.05;;;18.60;45.60;;;;;;6230613;23;20176;-82
2023/05/04 07:08:20;;;;;;;6.88;1.27;;;18.60;45.50;;;;;;6231634;23;20227;-82
2023/05/04 07:10:50;;;;;;;4.53;0.98;;;18.60;45.70;;;;;;6179927;23;20155;-81
2023/05/04 07:13:19;;;;;;;12.40;1.60;;;18.50;45.60;;;;;;6130957;23;20156;-81
2023/05/04 07:15:45;;;;;;;4.28;0.90;;;18.70;45.50;;;;;;6131481;23;20183;-81
2023/05/04 07:18:11;;;;;;;2.15;0.90;;;18.60;45.60;;;;;;6232264;23;20137;-82
2023/05/04 07:20:37;;;;;;;4.10;1.25;;;18.60;45.50;;;;;;6130409;23;20145;-82
2023/05/04 07:23:03;;;;;;;8.88;1.55;;;18.50;45.40;;;;;;6232595;23;20137;-81
2023/05/04 07:25:29;;;;;;;4.80;1.23;;;18.50;45.20;;;;;;6230969;23;20200;-82
2023/05/04 07:27:55;;;;;;;2.78;0.70;;;18.60;45.10;;;;;;6129140;23;20133;-82
2023/05/04 07:30:21;;;;;;;1.00;0.85;;;18.50;45.20;;;;;;6128598;23;20139;-81
2023/05/04 07:32:51;;;;;;;3.92;1.08;;;18.50;44.80;;;;;;6125715;23;20144;-82
2023/05/04 07:35:17;;;;;;;4.90;0.93;;;18.70;44.60;;;;;;6112393;23;20298;-81
2023/05/04 07:37:45;;;;;;;2.65;1.00;;;18.70;44.60;;;;;;6100167;23;20564;-82
2023/05/04 07:40:16;;;;;;;4.47;0.93;;;18.70;44.80;;;;;;6127990;23;20207;-83
2023/05/04 07:42:47;;;;;;;1.85;0.93;;;18.70;44.40;;;;;;6155869;23;20157;-82
2023/05/04 07:45:15;;;;;;;2.55;0.90;;;18.70;44.70;;;;;;6180751;23;20156;-82
2023/05/04 07:47:41;;;;;;;1.00;0.70;;;18.60;44.60;;;;;;6103221;23;20172;-82
2023/05/04 07:50:07;;;;;;;1.67;0.90;;;18.70;43.80;;;;;;6128546;23;20143;-82
2023/05/04 07:52:33;;;;;;;4.65;1.00;;;18.80;44.00;;;;;;6102559;23;20147;-81
2023/05/04 07:54:59;;;;;;;2.60;0.82;;;18.80;44.00;;;;;;6128791;23;20136;-83
2023/05/04 07:57:25;;;;;;;2.08;0.90;;;18.70;44.10;;;;;;6103453;23;20642;-82
2023/05/04 07:59:54;;;;;;;2.20;0.80;;;18.70;44.20;;;;;;6129480;23;20136;-82
2023/05/04 08:02:20;;;;;;;1.48;0.90;;;18.70;43.80;;;;;;6128942;23;20137;-82
2023/05/04 08:04:50;;;;;;;3.70;0.95;;;18.70;43.60;;;;;;6126126;23;20151;-82
2023/05/04 08:07:16;;;;;;;1.05;0.90;;;18.70;43.90;;;;;;6204371;23;20627;-82
2023/05/04 08:09:42;;;;;;;2.25;0.63;;;18.80;43.50;;;;;;6103697;23;20148;-82
2023/05/04 08:12:08;;;;;;;0.88;0.63;;;18.90;43.10;;;;;;6099296;23;20145;-82
2023/05/04 08:14:34;;;;;;;1.55;0.85;;;18.90;43.40;;;;;;6127783;23;20140;-82
2023/05/04 08:17:00;;;;;;;2.88;0.90;;;18.80;43.40;;;;;;6128422;23;20136;-83
2023/05/04 08:19:26;;;;;;;1.25;0.70;;;18.80;43.30;;;;;;6127697;23;20612;-81
2023/05/04 08:21:52;;;;;;;0.98;0.88;;;18.80;43.00;;;;;;6128143;23;20194;-83
2023/05/04 08:24:19;;;;;;;1.90;0.80;;;18.90;42.70;;;;;;6128470;23;20219;-82
2023/05/04 08:26:45;;;;;;;0.85;0.70;;;18.90;44.00;;;;;;6080715;23;20179;-83
2023/05/04 08:29:11;;;;;;;3.17;0.80;;;18.90;42.80;;;;;;6105601;23;20491;-82
2023/05/04 08:31:37;;;;;;;1.75;0.65;;;18.90;42.90;;;;;;6129295;23;20143;-81
2023/05/04 08:34:02;;;;;;;6.70;1.10;;;18.90;42.50;;;;;;6078820;23;20207;-84
2023/05/04 08:36:28;;;;;;;2.45;0.90;;;18.90;42.50;;;;;;6128840;23;20144;-82
2023/05/04 08:38:54;;;;;;;5.28;0.93;;;18.90;42.80;;;;;;6101484;23;20136;-82
2023/05/04 08:41:22;;;;;;;7.00;1.05;;;18.90;42.80;;;;;;6124620;23;20643;-81
2023/05/04 08:43:48;;;;;;;7.22;1.40;;;18.90;41.90;;;;;;6098956;23;20146;-82
2023/05/04 08:46:16;;;;;;;3.13;0.70;;;18.90;42.20;;;;;;6124278;23;20171;-81
2023/05/04 08:48:43;;;;;;;1.30;0.90;;;18.90;42.30;;;;;;6099771;23;20144;-82
2023/05/04 08:51:09;;;;;;;1.88;0.80;;;18.90;42.10;;;;;;6100048;23;20164;-81
2023/05/04 08:53:37;;;;;;;3.20;1.00;;;19.00;41.50;;;;;;6075925;23;20576;-82
2023/05/04 08:56:02;;;;;;;7.80;0.88;;;19.00;41.80;;;;;;6126611;23;20227;-82
2023/05/04 08:58:28;;;;;;;3.65;1.15;;;19.00;41.00;;;;;;6102514;23;20140;-82
2023/05/04 09:00:55;;;;;;;4.32;1.20;;;19.00;41.40;;;;;;6102326;23;20144;-82
2023/05/04 09:03:23;;;;;;;4.25;1.23;;;19.00;40.90;;;;;;6134257;23;20140;-81
2023/05/04 09:05:49;;;;;;;5.45;1.13;;;19.00;40.90;;;;;;6128134;23;20172;-81
2023/05/04 09:08:16;;;;;;;11.13;1.52;;;19.00;41.00;;;;;;6125919;23;20133;-81
2023/05/04 09:10:42;;;;;;;6.80;1.20;;;19.00;41.60;;;;;;6123575;23;20137;-81
2023/05/04 09:13:08;;;;;;;5.05;1.17;;;18.90;42.10;;;;;;6123024;23;20648;-82
2023/05/04 09:15:34;;;;;;;7.07;1.20;;;18.90;41.50;;;;;;6120590;23;20227;-82
2023/05/04 09:18:02;;;;;;;2.45;0.88;;;18.90;41.80;;;;;;6122305;23;20128;-82
2023/05/04 09:20:28;;;;;;;5.57;0.98;;;18.90;41.40;;;;;;6124934;23;20152;-81
2023/05/04 09:23:07;;;;;;;1.30;0.75;;;18.90;41.10;;;;;;6099707;23;20493;-82
2023/05/04 09:25:34;;;;;;;2.92;0.82;;;18.90;41.30;;;;;;6123521;23;20139;-82
2023/05/04 09:28:00;;;;;;;5.13;0.98;;;18.90;41.30;;;;;;6123931;23;20210;-82
2023/05/04 09:30:26;;;;;;;1.30;0.75;;;18.90;41.00;;;;;;6123848;23;20144;-82
2023/05/04 09:32:58;;;;;;;6.70;1.10;;;18.90;40.40;;;;;;6124155;23;20152;-81
2023/05/04 09:35:28;;;;;;;3.25;0.82;;;18.90;40.90;;;;;;6150412;23;20199;-82
2023/05/04 09:37:55;;;;;;;5.38;1.10;;;18.90;40.70;;;;;;6123854;23;20568;-82
2023/05/04 09:40:40;;;;;;;3.17;1.08;;;18.90;40.10;;;;;;6122048;23;20135;-81
2023/05/04 09:43:07;;;;;;;3.90;0.70;;;18.90;39.90;;;;;;6123527;23;20132;-82
2023/05/04 09:45:42;;;;;;;4.85;0.80;;;18.90;39.60;;;;;;6122414;23;20137;-82
2023/05/04 09:48:17;;;;;;;3.00;0.82;;;19.00;39.50;;;;;;6122716;23;20139;-82
2023/05/04 09:50:51;;;;;;;2.50;0.80;;;19.00;39.40;;;;;;6122646;23;20575;-82
2023/05/04 09:53:19;;;;;;;1.52;0.70;;;19.00;38.90;;;;;;6122198;23;20137;-82
2023/05/04 09:55:45;;;;;;;1.85;0.82;;;19.00;39.00;;;;;;6121983;23;20556;-82
2023/05/04 09:58:17;;;;;;;0.85;0.63;;;19.00;39.10;;;;;;6123789;23;20219;-81
2023/05/04 10:00:44;;;;;;;1.80;0.90;;;19.00;39.20;;;;;;6124325;23;20136;-82
2023/05/04 10:03:10;;;;;;;4.82;0.73;;;19.00;38.90;;;;;;6121904;23;20143;-82
2023/05/04 10:05:37;;;;;;;1.98;0.73;;;19.00;38.50;;;;;;6123379;23;20140;-82
2023/05/04 10:08:03;;;;;;;1.15;0.63;;;19.00;38.50;;;;;;6097595;23;20237;-82
2023/05/04 10:10:29;;;;;;;1.48;1.00;;;19.00;38.30;;;;;;6097295;23;20575;-82
2023/05/04 10:12:55;;;;;;;0.80;0.57;;;19.00;38.50;;;;;;6123490;23;20136;-82
2023/05/04 10:15:21;;;;;;;2.45;0.70;;;19.00;38.00;;;;;;6124401;23;20137;-81
2023/05/04 10:18:06;;;;;;;3.45;0.80;;;19.00;39.00;;;;;;6097305;23;20156;-81
2023/05/04 10:20:48;;;;;;;1.00;0.80;;;19.00;38.70;;;;;;6123402;23;20144;-81
2023/05/04 10:23:46;;;;;;;1.25;0.63;;;18.90;38.70;;;;;;6123587;23;20148;-81
2023/05/04 10:26:26;;;;;;;0.65;0.55;;;18.90;38.50;;;;;;6123426;23;20180;-82
2023/05/04 10:29:06;;;;;;;2.35;0.80;;;19.00;38.10;;;;;;6121887;23;20167;-82
2023/05/04 10:31:39;;;;;;;1.20;0.80;;;18.90;38.50;;;;;;6121737;23;20159;-82
2023/05/04 10:34:05;;;;;;;1.08;0.60;;;18.90;38.20;;;;;;6121775;23;20184;-82
2023/05/04 10:36:36;;;;;;;1.70;0.60;;;18.90;37.80;;;;;;6123971;23;20227;-81
2023/05/04 10:39:02;;;;;;;2.00;0.80;;;18.90;37.10;;;;;;6124033;23;20141;-81
2023/05/04 10:41:28;;;;;;;0.70;0.52;;;19.10;36.90;;;;;;6123446;23;20182;-82
2023/05/04 10:44:02;;;;;;;1.23;0.80;;;19.00;37.20;;;;;;6123639;23;20136;-81
2023/05/04 10:46:28;;;;;;;0.70;0.70;;;19.00;37.20;;;;;;6121765;23;20164;-81
2023/05/04 10:48:54;;;;;;;1.02;0.80;;;18.90;37.20;;;;;;6123819;23;20452;-81
2023/05/04 10:51:21;;;;;;;0.77;0.65;;;19.00;37.60;;;;;;6123928;23;20132;-81
2023/05/04 10:53:47;;;;;;;1.33;0.70;;;19.00;37.50;;;;;;6121678;23;20148;-81
2023/05/04 10:56:22;;;;;;;1.95;0.70;;;19.00;37.20;;;;;;6123378;23;20464;-82
2023/05/04 10:58:48;;;;;;;1.85;0.70;;;19.00;37.30;;;;;;6097632;23;20160;-81
2023/05/04 11:01:15;;;;;;;1.83;0.82;;;18.90;37.20;;;;;;6121914;23;20163;-80
2023/05/04 11:03:41;;;;;;;0.90;0.73;;;19.10;37.50;;;;;;6129389;23;20207;-83
2023/05/04 11:06:22;;;;;;;0.98;0.60;;;18.90;37.00;;;;;;6129394;23;20184;-82
2023/05/04 11:08:58;;;;;;;1.30;0.70;;;19.00;37.10;;;;;;6127836;23;20152;-82
2023/05/04 11:11:24;;;;;;;1.45;0.80;;;19.00;37.50;;;;;;6129601;23;20137;-80
2023/05/04 11:13:50;;;;;;;3.63;0.77;;;19.00;36.50;;;;;;6100768;23;20231;-82
2023/05/04 11:16:24;;;;;;;0.60;0.60;;;19.10;36.40;;;;;;6127571;23;20133;-81
2023/05/04 11:18:50;;;;;;;2.78;0.82;;;19.00;36.00;;;;;;6129483;23;20140;-81
2023/05/04 11:21:36;;;;;;;1.02;0.65;;;19.00;36.40;;;;;;6106686;23;20190;-82
2023/05/04 11:24:05;;;;;;;0.88;0.70;;;19.00;36.30;;;;;;6026411;23;20157;-82
2023/05/04 11:26:34;;;;;;;1.25;0.60;;;18.90;36.40;;;;;;6047670;23;20180;-81
2023/05/04 11:29:00;;;;;;;1.67;0.50;;;19.00;35.90;;;;;;6047607;23;20273;-84
2023/05/04 11:32:18;;;;;;;1.60;0.75;;;19.00;35.90;;;;;;6024607;23;20160;-85
2023/05/04 11:34:45;;;;;;;0.90;0.80;;;19.10;36.10;;;;;;6127527;23;20531;-82
2023/05/04 11:37:12;;;;;;;1.63;0.70;;;19.10;36.10;;;;;;6143314;23;20151;-81
2023/05/04 11:39:38;;;;;;;0.80;0.70;;;19.10;35.70;;;;;;6171129;23;20158;-82
2023/05/04 11:42:27;;;;;;;;;;;;;;;;;;;;;
2023/05/04 11:45:54;;;;;;;0.85;0.50;;;19.10;36.00;;;;;;6120747;23;20174;-82
2023/05/04 11:48:20;;;;;;;2.72;0.65;;;19.00;36.00;;;;;;6043243;23;20632;-81
2023/05/04 11:50:47;;;;;;;1.00;0.57;;;19.00;35.70;;;;;;6041293;23;20177;-82
2023/05/04 11:53:21;;;;;;;0.60;0.50;;;19.00;35.40;;;;;;6017398;23;20154;-80
2023/05/04 11:56:14;;;;;;;1.95;0.73;;;19.00;35.00;;;;;;6003171;23;20162;-82
2023/05/04 11:58:39;;;;;;;1.52;0.70;;;19.20;34.80;;;;;;6039134;23;20296;-82
2023/05/04 12:01:16;;;;;;;0.60;0.60;;;19.10;34.70;;;;;;6017373;23;20150;-82
2023/05/04 12:03:43;;;;;;;1.95;0.88;;;19.20;34.60;;;;;;6000638;23;20229;-81
2023/05/04 12:06:09;;;;;;;1.15;0.60;;;19.20;34.50;;;;;;6017343;23;20181;-82
2023/05/04 12:08:40;;;;;;;1.50;0.80;;;19.20;34.90;;;;;;6040785;23;20159;-81
2023/05/04 12:11:24;;;;;;;1.10;0.63;;;19.20;34.80;;;;;;6041884;23;20154;-80
2023/05/04 12:14:08;;;;;;;4.05;0.70;;;19.10;35.10;;;;;;6092456;23;20160;-80
2023/05/04 12:16:34;;;;;;;2.00;0.68;;;19.10;35.00;;;;;;6073212;23;20191;-80
2023/05/04 12:19:03;;;;;;;4.20;1.08;;;19.10;34.90;;;;;;6097568;23;20164;-80
2023/05/04 12:21:33;;;;;;;1.73;0.82;;;19.20;34.60;;;;;;6096416;23;20165;-82
2023/05/04 12:23:59;;;;;;;1.73;0.77;;;19.10;34.30;;;;;;6076804;23;20283;-81
2023/05/04 12:26:33;;;;;;;2.38;0.70;;;19.10;34.40;;;;;;6108341;23;20182;-81
2023/05/04 12:28:59;;;;;;;1.80;0.73;;;19.10;34.50;;;;;;6117581;23;20478;-81
2023/05/04 12:31:31;;;;;;;1.23;0.77;;;19.20;34.20;;;;;;6139093;23;20567;-82
2023/05/04 12:33:58;;;;;;;2.30;0.70;;;19.20;34.30;;;;;;6137408;23;20154;-84
2023/05/04 12:36:24;;;;;;;0.80;0.60;;;19.20;34.30;;;;;;6144682;23;20154;-84
2023/05/04 12:39:01;;;;;;;0.70;0.60;;;19.20;34.40;;;;;;6166592;23;20180;-83
2023/05/04 12:41:27;;;;;;;1.33;0.70;;;19.20;34.00;;;;;;6122550;23;20153;-82
2023/05/04 12:43:58;;;;;;;1.65;0.70;;;19.30;34.20;;;;;;6192448;23;20274;-82
2023/05/04 12:46:24;;;;;;;0.65;0.50;;;19.30;33.80;;;;;;6140000;23;20189;-83
2023/05/04 12:48:56;;;;;;;0.50;0.50;;;19.30;33.60;;;;;;6191069;23;20577;-83
2023/05/04 12:51:26;;;;;;;1.55;0.60;;;19.30;33.80;;;;;;6216873;23;20141;-82